Jump to content
Holidays
Local
Radar
Snow?

Robbie Garrett

Members
  • Content Count

    2,117
  • Joined

  • Last visited

  • Days Won

    1

Robbie Garrett last won the day on March 19 2012

Robbie Garrett had the most liked content!

Community Reputation

1,085 Exceptional

About Robbie Garrett

  • Rank
    Qualified Private Pilot

Profile Information

  • Gender
    Male
  • Location
    London, UK
  • Interests
    Flying, Aviation, Weather, Formula 1,& Football! (Oh and girls) so everything that moves basically :D

Contact Methods

  • Skype
    robbie.garrett

Recent Profile Visitors

27,038 profile views
  1. Robbie Garrett

    SE and East Anglia general weather discussion 07/11/2018

    Well once that icing level shifts further upwards, I can sit in the bad weather for flying.
  2. Robbie Garrett

    SE and East Anglia general weather discussion 07/11/2018

    EGKK GATWICK AIRPORT METAR EGKK 311850Z 08011KT 9999 BKN011 M00/M02 Q0985= TAF EGKK 311702Z 3118/0124 09012KT 9999 SCT020 PROB30 TEMPO 3118/3120 4000 -RASN BKN009 TEMPO 3120/0107 3000 -SN BKN007 PROB40 TEMPO 3120/0104 1200 SN BKN003 PROB30 TEMPO 0104/0110 BKN004 PROB40 TEMPO 0107/0119 4000 -SN BKN009 BECMG 0118/0121 35010KT PROB30 TEMPO 0119/0124 BKN010= EGLL HEATHROW METAR COR EGLL 311850Z AUTO 09011KT 9999 FEW018 01/M01 Q0986 TEMPO 4000 -SN= TAF EGLL 311658Z 3118/0124 08012KT 9999 SCT020 TEMPO 3118/3121 4000 -SN BKN010 BECMG 3121/3124 3000 -SN BKN005 PROB40 TEMPO 3121/0109 1200 SN BKN003 BECMG 0109/0112 02010KT 9999 NSW SCT020 PROB40 TEMPO 0112/0120 4000 -RASN BKN014 TEMPO 0120/0124 8000 BKN012= EGLC LONDON CITY AIRPORT METAR EGLC 311850Z AUTO 09016KT 9999 BKN010 01/M01 Q0988= TAF AMD EGLC 311826Z 3118/3121 08013KT 9999 FEW030 BECMG 3118/3121 BKN007 PROB30 TEMPO 3118/3120 4000 -RASN TEMPO 3120/3121 3000 -SN= EGGW LUTON AIRPORT METAR EGGW 311850Z AUTO 10013KT 9999 BKN007 M00/M01 Q0987= TAF EGGW 311702Z 3118/0118 11012KT 9999 SCT010 PROB40 TEMPO 3118/3119 BKN006 TEMPO 3119/0110 3000 -SN BR BKN004 PROB40 TEMPO 3121/0110 1000 SN BKN001 BECMG 0102/0105 05012KT PROB40 TEMPO 0110/0118 1500 SHSN BKN004=
  3. Proper storm with Thunder and lightning in London. It's January....
  4. Robbie Garrett

    SE and East Anglia general weather discussion 07/11/2018

    Who writes this rubbish?
  5. I would prefer a winter blast end of Jan and February and any warm spell to last from March till August ;) 

    1. karyo

      karyo

      No thanks to the second part.

    2. Mokidugway

      Mokidugway

      Opposite  of above 😎

    3. Robbie Garrett

      Robbie Garrett

      Warm winter, cold Summer?

  6. Robbie Garrett

    2018 simply was a blur!

    In 2018 I flew 23 hours across 1900 miles. It's been a hugely tough year personally, but it's not enough to shadow the love for flight despite a 6 month sabbatical due to financial reasons. Visiting Southend ILS approaches and good experience... Flying above the clouds more regularly Lots of weather avoidance and good IMC practice... Views of the biggest car park in the world Longest flight I've completed so far Yummy food in France Diverting to Southampton due to Weather at Destination Frontal flying After 6 months way it was time to see more sunsets In 2019, the plans afoot are even bigger...
  7. The skies are amazing today! Especially at Sunset in London.
  8. Just had a boom of Thunder in London.
  9. Robbie Garrett

    European Storm & Convective Discussion

    Anyone got a radar run for last night at Sant Llorenc?
  10. So realistically even if July doesn't do a 20*C which it wont. August well could?
  11. Interesting that where the SST's are quite high there's a marked increase in activity off the coast of West Africa on the ITCZ.
  12. Sky has a very Texas look about it.
  13. Thunder just south of me (Se17). Can see rain shower in the distance.
  14. Robbie Garrett

    Summer 2018 - Moans, Ramps, Chat etc

    Yeah lots of sweat!
×